Time;durP1;ratioP1;P1;durP2;ratioP2;P2;SDS_P1;SDS_P2;PMS_P1;PMS_P2;Temp;Humidity;BMP_temperature;BMP_pressure;BME280_temperature;BME280_humidity;BME280_pressure;Samples;Min_cycle;Max_cycle;Signal;HPM_P1;HPM_P2
2023/12/11 00:02:25;;;;;;;1.87;0.90;;;;;;;12.49;62.00;96490.47;5063810;28;20209;-67
2023/12/11 00:04:50;;;;;;;1.63;0.87;;;;;;;12.52;61.92;96498.00;5062151;28;20244;-69
2023/12/11 00:07:16;;;;;;;4.30;0.97;;;;;;;12.57;61.95;96493.00;5069509;28;20441;-69
2023/12/11 00:09:41;;;;;;;2.10;0.97;;;;;;;12.57;61.79;96493.00;5068839;28;20183;-69
2023/12/11 00:12:07;;;;;;;2.43;1.00;;;;;;;12.58;61.84;96510.41;5068804;28;20198;-68
2023/12/11 00:14:32;;;;;;;3.13;1.10;;;;;;;12.69;61.33;96507.31;5068799;28;20269;-68
2023/12/11 00:16:58;;;;;;;1.50;1.00;;;;;;;12.63;61.55;96494.91;5067887;28;20236;-68
2023/12/11 00:19:23;;;;;;;3.47;1.00;;;;;;;12.70;61.73;96490.56;5065165;28;20187;-68
2023/12/11 00:21:49;;;;;;;2.00;0.93;;;;;;;12.68;61.83;96479.41;5062076;28;20198;-68
2023/12/11 00:24:14;;;;;;;3.00;1.00;;;;;;;12.72;61.50;96479.84;5065049;28;20217;-69
2023/12/11 00:26:40;;;;;;;1.10;0.80;;;;;;;12.67;61.59;96484.81;5069140;28;20282;-69
2023/12/11 00:29:05;;;;;;;1.63;0.90;;;;;;;12.65;61.58;96481.59;5060482;28;20752;-68
2023/12/11 00:31:30;;;;;;;1.40;1.10;;;;;;;12.71;61.87;96481.66;5068872;28;20178;-69
2023/12/11 00:33:56;;;;;;;2.27;1.00;;;;;;;12.60;62.28;96484.78;5066276;28;20192;-68
2023/12/11 00:36:21;;;;;;;1.30;0.80;;;;;;;12.57;62.44;96487.75;5062238;28;20194;-68
2023/12/11 00:38:47;;;;;;;1.20;0.93;;;;;;;12.57;62.75;96482.50;5066628;28;20700;-68
2023/12/11 00:41:14;;;;;;;1.83;0.90;;;;;;;12.65;62.33;96482.38;5065192;28;20195;-68
2023/12/11 00:43:40;;;;;;;1.50;0.90;;;;;;;12.68;62.41;96487.28;5068338;28;20583;-68
2023/12/11 00:46:05;;;;;;;2.23;1.10;;;;;;;12.69;62.52;96503.88;5054326;28;20425;-68
2023/12/11 00:48:31;;;;;;;3.90;1.00;;;;;;;12.61;63.15;96510.03;5068625;28;20908;-69
2023/12/11 00:50:56;;;;;;;1.40;0.93;;;;;;;12.73;62.53;96513.81;5062465;28;20178;-68
2023/12/11 00:53:21;;;;;;;2.00;0.80;;;;;;;12.79;62.60;96516.72;5064302;28;20182;-69
2023/12/11 00:55:47;;;;;;;1.50;0.80;;;;;;;12.80;62.64;96506.03;5065332;28;20247;-68
2023/12/11 00:58:12;;;;;;;2.90;0.80;;;;;;;12.79;62.76;96500.97;5065196;28;20748;-68
2023/12/11 01:00:38;;;;;;;1.50;0.90;;;;;;;12.80;63.21;96502.59;5055505;28;20286;-68
2023/12/11 01:03:03;;;;;;;2.90;1.10;;;;;;;12.91;62.54;96515.25;5062402;28;20279;-68
2023/12/11 01:05:29;;;;;;;0.93;0.80;;;;;;;12.95;62.48;96516.53;5069094;28;20182;-68
2023/12/11 01:07:54;;;;;;;1.20;0.80;;;;;;;12.94;62.55;96514.91;5063205;28;20198;-68
2023/12/11 01:10:20;;;;;;;1.20;0.90;;;;;;;12.96;62.64;96512.09;5063619;28;20596;-68
2023/12/11 01:12:45;;;;;;;1.63;0.70;;;;;;;12.99;62.36;96520.41;5064958;28;20190;-67
2023/12/11 01:15:11;;;;;;;1.40;1.00;;;;;;;13.05;62.46;96519.69;5067843;28;20193;-69
2023/12/11 01:17:45;;;;;;;1.10;0.70;;;;;;;13.04;62.76;96518.06;5065111;28;21177;-68
2023/12/11 01:20:10;;;;;;;1.57;0.80;;;;;;;13.10;62.49;96518.34;5056969;28;20449;-69
2023/12/11 01:22:36;;;;;;;1.07;0.70;;;;;;;13.11;62.54;96518.13;5051629;28;20486;-70
2023/12/11 01:25:02;;;;;;;3.00;1.00;;;;;;;13.11;62.44;96525.19;5054299;28;20187;-69
2023/12/11 01:27:27;;;;;;;1.63;1.10;;;;;;;13.04;63.01;96520.69;5052223;28;20211;-68
2023/12/11 01:29:53;;;;;;;1.93;0.90;;;;;;;12.97;63.21;96508.47;5002791;28;20444;-69
2023/12/11 01:32:18;;;;;;;1.27;0.83;;;;;;;13.08;62.98;96509.81;5007543;28;20684;-70
2023/12/11 01:34:44;;;;;;;2.37;0.80;;;;;;;12.92;63.78;96506.38;5061113;28;20193;-69
2023/12/11 01:37:09;;;;;;;1.20;0.70;;;;;;;12.95;63.91;96505.19;5005772;28;20238;-68
2023/12/11 01:39:35;;;;;;;1.20;0.70;;;;;;;12.97;63.43;96516.34;5023341;28;20194;-68
2023/12/11 01:42:00;;;;;;;0.90;0.60;;;;;;;13.01;63.44;96509.72;5058298;28;20625;-68
2023/12/11 01:44:26;;;;;;;1.10;0.70;;;;;;;12.96;63.90;96515.53;5057148;28;20284;-68
2023/12/11 01:46:52;;;;;;;0.90;0.60;;;;;;;12.95;63.72;96515.72;5051692;28;20188;-68
2023/12/11 01:49:18;;;;;;;1.10;0.70;;;;;;;12.97;63.78;96513.72;5046652;28;20227;-69
2023/12/11 01:51:44;;;;;;;2.00;0.70;;;;;;;12.99;63.46;96520.41;5055189;28;20790;-68
2023/12/11 01:54:09;;;;;;;1.20;0.70;;;;;;;13.07;63.24;96511.59;5051798;28;20429;-70
2023/12/11 01:56:35;;;;;;;0.90;0.67;;;;;;;13.15;62.67;96505.41;5044527;28;20227;-68
2023/12/11 01:59:00;;;;;;;0.90;0.60;;;;;;;13.18;62.71;96505.84;5044758;28;20215;-68
2023/12/11 02:01:26;;;;;;;2.57;0.73;;;;;;;13.16;62.14;96513.16;5055673;28;20198;-69
2023/12/11 02:03:52;;;;;;;0.93;0.63;;;;;;;13.18;62.38;96526.91;5043882;28;20215;-71
2023/12/11 02:06:17;;;;;;;0.97;0.70;;;;;;;13.23;62.27;96534.28;5054621;28;20624;-68
2023/12/11 02:08:45;;;;;;;1.30;0.70;;;;;;;13.24;61.93;96541.13;5053516;28;20218;-69
2023/12/11 02:11:12;;;;;;;0.90;0.60;;;;;;;13.24;61.69;96541.13;5040411;28;20261;-69
2023/12/11 02:13:39;;;;;;;2.13;0.70;;;;;;;13.28;61.85;96542.41;4992027;28;20442;-69
2023/12/11 02:16:05;;;;;;;1.43;0.70;;;;;;;13.31;61.58;96547.31;5030894;28;20466;-69
2023/12/11 02:18:31;;;;;;;1.00;0.60;;;;;;;13.34;61.63;96531.16;5042967;28;20461;-68
2023/12/11 02:20:56;;;;;;;1.33;0.70;;;;;;;13.36;61.50;96523.84;5041915;28;21081;-68
2023/12/11 02:23:27;;;;;;;1.93;0.60;;;;;;;13.31;61.39;96528.06;5034910;28;20668;-69
2023/12/11 02:26:06;;;;;;;0.80;0.60;;;;;;;13.35;61.50;96527.53;5035371;28;20191;-70
2023/12/11 02:28:32;;;;;;;1.33;0.70;;;;;;;13.34;61.58;96515.34;5029347;28;20461;-69
2023/12/11 02:30:57;;;;;;;1.27;0.70;;;;;;;13.36;61.42;96513.34;5039486;28;20430;-69
2023/12/11 02:33:23;;;;;;;1.17;0.80;;;;;;;13.35;61.71;96505.63;5049383;28;20193;-69
2023/12/11 02:35:48;;;;;;;1.27;0.70;;;;;;;13.37;61.68;96501.81;5034125;28;20203;-69
2023/12/11 02:38:14;;;;;;;1.67;0.77;;;;;;;13.36;61.74;96508.06;5041430;28;20309;-70
2023/12/11 02:40:39;;;;;;;1.83;0.60;;;;;;;13.37;61.75;96514.16;5037957;28;20249;-70
2023/12/11 02:43:05;;;;;;;1.30;0.80;;;;;;;13.41;61.53;96519.88;5040009;28;20287;-69
2023/12/11 02:45:30;;;;;;;1.37;0.60;;;;;;;13.40;61.73;96524.34;5035641;28;20237;-69
2023/12/11 02:48:02;;;;;;;0.90;0.60;;;;;;;13.35;61.52;96527.53;5040723;28;20216;-69
2023/12/11 02:50:29;;;;;;;1.00;0.80;;;;;;;13.37;61.54;96522.84;5033894;28;20535;-69
2023/12/11 02:52:54;;;;;;;1.70;0.80;;;;;;;13.44;61.46;96519.53;5037588;28;20438;-70
2023/12/11 02:55:19;;;;;;;2.07;0.50;;;;;;;13.49;61.46;96522.41;5041638;28;20432;-69
2023/12/11 02:57:45;;;;;;;1.00;0.60;;;;;;;13.54;61.04;96519.22;5042035;28;20203;-70
2023/12/11 03:00:10;;;;;;;1.00;0.60;;;;;;;13.57;61.23;96527.56;5015455;28;20192;-69
2023/12/11 03:02:37;;;;;;;2.43;0.97;;;;;;;13.57;61.03;96511.75;5045553;28;20195;-69
2023/12/11 03:05:02;;;;;;;0.90;0.80;;;;;;;13.47;61.40;96503.38;5035233;28;20187;-68
2023/12/11 03:07:28;;;;;;;1.23;0.60;;;;;;;13.46;61.76;96515.69;5037766;28;20856;-68
2023/12/11 03:09:53;;;;;;;1.10;0.70;;;;;;;13.46;61.94;96504.38;5039425;28;20557;-67
2023/12/11 03:12:19;;;;;;;1.13;0.70;;;;;;;13.44;62.44;96504.53;5042143;28;20223;-68
2023/12/11 03:14:44;;;;;;;1.07;0.70;;;;;;;13.44;62.33;96504.53;5034387;28;20195;-67
2023/12/11 03:17:09;;;;;;;3.70;0.70;;;;;;;13.39;62.53;96506.06;5021926;28;20218;-68
2023/12/11 03:19:35;;;;;;;1.10;0.70;;;;;;;13.42;62.63;96517.06;5032936;28;20203;-69
2023/12/11 03:22:00;;;;;;;0.90;0.70;;;;;;;13.42;62.38;96509.16;5039261;28;20569;-69
2023/12/11 03:24:26;;;;;;;1.00;0.60;;;;;;;13.41;62.61;96504.09;5041243;28;20191;-70
2023/12/11 03:26:51;;;;;;;1.20;0.60;;;;;;;13.38;62.88;96505.28;5044325;28;20194;-69
2023/12/11 03:29:17;;;;;;;3.27;0.70;;;;;;;13.41;63.10;96504.94;5029250;28;20192;-68
2023/12/11 03:31:42;;;;;;;0.90;0.60;;;;;;;13.45;62.83;96500.09;5036202;28;20256;-67
2023/12/11 03:34:07;;;;;;;1.10;0.70;;;;;;;13.43;62.89;96495.00;5037134;28;20281;-68
2023/12/11 03:36:33;;;;;;;5.23;0.60;;;;;;;13.45;62.94;96503.53;5041922;28;20226;-69
2023/12/11 03:38:58;;;;;;;1.10;0.53;;;;;;;13.45;62.72;96500.09;5035773;28;20216;-68
2023/12/11 03:41:24;;;;;;;1.00;0.63;;;;;;;13.47;63.02;96482.31;5034658;28;20237;-68
2023/12/11 03:43:49;;;;;;;0.80;0.50;;;;;;;13.48;62.83;96492.63;5046348;28;20199;-67
2023/12/11 03:46:15;;;;;;;1.90;0.60;;;;;;;13.45;63.02;96489.56;5038358;28;20990;-67
2023/12/11 03:48:41;;;;;;;0.90;0.53;;;;;;;13.42;63.35;96490.75;5030690;28;20211;-68
2023/12/11 03:51:06;;;;;;;1.43;0.60;;;;;;;13.37;63.34;96486.00;5038283;28;20449;-70
2023/12/11 03:53:32;;;;;;;0.90;0.60;;;;;;;13.40;63.48;96484.03;5034222;28;20199;-68
2023/12/11 03:55:57;;;;;;;0.90;0.60;;;;;;;13.43;63.51;96481.03;5040113;28;20252;-68
2023/12/11 03:58:23;;;;;;;0.80;0.60;;;;;;;13.45;63.48;96479.03;5039500;28;20207;-68
2023/12/11 04:00:48;;;;;;;1.83;0.70;;;;;;;13.45;63.77;96481.69;5041923;28;20198;-70
2023/12/11 04:03:14;;;;;;;1.20;0.60;;;;;;;13.44;63.71;96466.88;5039474;28;20248;-69
2023/12/11 04:05:39;;;;;;;1.00;0.60;;;;;;;13.42;63.74;96458.38;5035058;28;20654;-69
2023/12/11 04:08:05;;;;;;;1.00;0.50;;;;;;;13.42;63.94;96450.47;5035128;28;20466;-69
2023/12/11 04:10:31;;;;;;;0.90;0.60;;;;;;;13.41;63.97;96454.09;5040749;28;20195;-68
2023/12/11 04:12:59;;;;;;;1.27;0.93;;;;;;;13.42;64.13;96447.84;5045259;28;20274;-68
2023/12/11 04:15:25;;;;;;;0.87;0.57;;;;;;;13.41;64.03;96446.19;5041317;28;20187;-68
2023/12/11 04:17:50;;;;;;;1.63;1.53;;;;;;;13.46;64.15;96444.63;5046317;28;20485;-69
2023/12/11 04:20:16;;;;;;;1.10;1.00;;;;;;;13.47;63.65;96454.16;5031365;28;20196;-68
2023/12/11 04:22:41;;;;;;;2.50;1.03;;;;;;;13.48;63.82;96471.59;5038950;28;20820;-69
2023/12/11 04:25:07;;;;;;;1.87;1.67;;;;;;;13.51;63.46;96473.84;5034464;28;20202;-68
2023/12/11 04:27:32;;;;;;;1.00;0.80;;;;;;;13.51;63.47;96483.53;5032810;28;20214;-68
2023/12/11 04:29:58;;;;;;;1.43;0.80;;;;;;;13.46;63.72;96485.94;5033926;28;20231;-69
2023/12/11 04:32:23;;;;;;;1.10;0.60;;;;;;;13.46;63.63;96478.03;5038019;28;20214;-69
2023/12/11 04:34:49;;;;;;;0.80;0.60;;;;;;;13.46;63.71;96488.56;5028186;28;20206;-69
2023/12/11 04:37:14;;;;;;;1.30;0.70;;;;;;;13.43;63.81;96495.00;5033548;28;20215;-68
2023/12/11 04:39:39;;;;;;;10.53;0.70;;;;;;;13.39;63.94;96485.00;5034034;28;20199;-70
2023/12/11 04:42:05;;;;;;;0.90;0.63;;;;;;;13.42;63.88;96496.00;5028599;28;20551;-68
2023/12/11 04:44:30;;;;;;;1.17;0.60;;;;;;;13.34;64.01;96496.94;5038133;28;20183;-69
2023/12/11 04:46:56;;;;;;;1.30;0.60;;;;;;;13.31;63.99;96496.47;5035192;28;20585;-69
2023/12/11 04:49:21;;;;;;;1.27;0.63;;;;;;;13.30;63.97;96498.31;5032760;28;20194;-69
2023/12/11 04:51:47;;;;;;;1.33;0.70;;;;;;;13.28;64.13;96491.59;5041377;28;20224;-70
2023/12/11 04:54:12;;;;;;;1.37;0.70;;;;;;;13.29;63.70;96475.63;5032904;28;20495;-69
2023/12/11 04:56:38;;;;;;;2.30;0.60;;;;;;;13.30;64.04;96463.25;5026555;28;20266;-69
2023/12/11 04:59:03;;;;;;;1.73;0.80;;;;;;;13.31;63.88;96463.09;5024363;28;20270;-69
2023/12/11 05:01:29;;;;;;;1.10;0.70;;;;;;;13.29;63.75;96457.19;5027219;28;20237;-69
2023/12/11 05:03:54;;;;;;;1.30;0.60;;;;;;;13.33;63.50;96466.34;5026494;28;20950;-70
2023/12/11 05:06:20;;;;;;;4.00;0.60;;;;;;;13.27;63.49;96467.09;5026935;28;20187;-69
2023/12/11 05:08:45;;;;;;;1.00;0.70;;;;;;;13.27;63.26;96458.41;5027379;28;20241;-69
2023/12/11 05:11:11;;;;;;;0.97;0.60;;;;;;;13.28;63.37;96462.66;5033652;28;20219;-69
2023/12/11 05:13:36;;;;;;;0.93;0.63;;;;;;;13.24;63.66;96442.97;5027210;28;20217;-69
2023/12/11 05:16:02;;;;;;;0.90;0.60;;;;;;;13.28;63.30;96447.69;5026510;28;20257;-69
2023/12/11 05:18:27;;;;;;;0.83;0.60;;;;;;;13.34;63.08;96462.72;5026989;28;20567;-69
2023/12/11 05:20:53;;;;;;;1.00;0.70;;;;;;;13.27;63.31;96461.84;5031339;28;20556;-69
2023/12/11 05:23:18;;;;;;;0.80;0.60;;;;;;;13.29;63.22;96470.34;5031610;28;20201;-71
2023/12/11 05:25:44;;;;;;;1.10;0.70;;;;;;;13.21;63.04;96467.84;5025481;28;20191;-68
2023/12/11 05:28:10;;;;;;;1.90;0.70;;;;;;;13.24;63.08;96451.66;5030727;28;20208;-69
2023/12/11 05:30:35;;;;;;;1.20;0.70;;;;;;;13.28;62.95;96437.16;5027068;28;20848;-68
2023/12/11 05:33:01;;;;;;;1.60;0.70;;;;;;;13.32;62.64;96446.31;5028057;28;20963;-68
2023/12/11 05:35:26;;;;;;;1.40;0.80;;;;;;;13.27;62.30;96438.16;5031584;28;20184;-66
2023/12/11 05:37:52;;;;;;;0.90;0.63;;;;;;;13.28;62.31;96436.34;5027288;28;20265;-67
2023/12/11 05:40:17;;;;;;;1.57;0.70;;;;;;;13.28;62.48;96421.38;5028989;28;20594;-68
2023/12/11 05:42:42;;;;;;;1.40;0.90;;;;;;;13.28;62.10;96420.56;5025073;28;20334;-68
2023/12/11 05:45:09;;;;;;;1.10;0.80;;;;;;;13.32;62.21;96409.47;5040858;28;20270;-68
2023/12/11 05:47:35;;;;;;;1.30;0.90;;;;;;;13.29;62.16;96380.91;5042233;28;20275;-68
2023/12/11 05:50:01;;;;;;;3.30;0.70;;;;;;;13.26;61.99;96393.63;5029430;28;20430;-68
2023/12/11 05:52:26;;;;;;;1.37;1.07;;;;;;;13.25;61.82;96405.94;5039636;28;20461;-69
2023/12/11 05:54:52;;;;;;;1.17;0.80;;;;;;;13.30;61.79;96418.53;5023020;28;20587;-71
2023/12/11 05:57:17;;;;;;;3.77;0.80;;;;;;;13.30;61.92;96419.38;5037266;28;20806;-68
2023/12/11 05:59:43;;;;;;;1.43;0.70;;;;;;;13.32;61.64;96427.88;5039139;28;20184;-68
2023/12/11 06:02:09;;;;;;;2.80;1.27;;;;;;;13.29;62.03;96443.25;5042948;28;20198;-69
2023/12/11 06:04:36;;;;;;;1.00;0.70;;;;;;;13.31;61.75;96447.31;5034401;28;20522;-69
2023/12/11 06:07:02;;;;;;;1.67;0.87;;;;;;;13.34;61.82;96452.19;5031007;28;20731;-69
2023/12/11 06:09:28;;;;;;;1.30;0.70;;;;;;;13.32;61.72;96448.09;5039190;28;20430;-69
2023/12/11 06:11:53;;;;;;;3.30;1.13;;;;;;;13.31;61.53;96433.31;5031690;28;20191;-69
2023/12/11 06:14:18;;;;;;;1.30;0.90;;;;;;;13.29;61.66;96423.00;5040717;28;20600;-70
2023/12/11 06:16:44;;;;;;;2.80;1.60;;;;;;;13.31;61.29;96430.69;5038454;28;20203;-70
2023/12/11 06:19:09;;;;;;;2.90;1.13;;;;;;;13.33;61.49;96423.41;5046157;28;20236;-68
2023/12/11 06:21:35;;;;;;;1.43;1.00;;;;;;;13.36;61.40;96423.84;5043042;28;20570;-69
2023/12/11 06:24:00;;;;;;;1.10;0.70;;;;;;;13.26;61.50;96426.00;5038409;28;20300;-70
2023/12/11 06:26:28;;;;;;;1.33;0.87;;;;;;;13.21;61.81;96444.97;5039088;28;20187;-69
2023/12/11 06:28:53;;;;;;;3.13;0.83;;;;;;;13.25;61.74;96434.09;5041013;28;20219;-69
2023/12/11 06:31:19;;;;;;;2.47;1.10;;;;;;;13.29;61.85;96433.53;5039508;28;20939;-68
2023/12/11 06:33:44;;;;;;;1.50;1.00;;;;;;;13.34;61.71;96430.31;5044398;28;20209;-68
2023/12/11 06:36:10;;;;;;;1.27;0.90;;;;;;;13.33;61.59;96444.47;5036793;28;20210;-68
2023/12/11 06:38:35;;;;;;;1.57;0.80;;;;;;;13.39;61.57;96440.28;5035981;28;20638;-71
2023/12/11 06:41:01;;;;;;;4.30;1.00;;;;;;;13.36;61.77;96438.84;5028591;28;20192;-70
2023/12/11 06:43:26;;;;;;;1.50;0.90;;;;;;;13.36;61.75;96415.97;5030042;28;21630;-69
2023/12/11 06:45:51;;;;;;;2.00;0.87;;;;;;;13.40;61.72;96397.19;5036084;28;20186;-69
2023/12/11 06:48:17;;;;;;;2.50;0.90;;;;;;;13.39;61.92;96392.91;5015019;28;20212;-69
2023/12/11 06:50:42;;;;;;;2.50;0.90;;;;;;;13.42;61.58;96389.94;5024704;28;20202;-70
2023/12/11 06:53:08;;;;;;;1.20;0.90;;;;;;;13.43;61.86;96396.81;5025669;28;20195;-69
2023/12/11 06:55:34;;;;;;;1.30;0.60;;;;;;;13.43;61.81;96402.09;5030094;28;20187;-69
2023/12/11 06:57:59;;;;;;;1.37;0.80;;;;;;;13.47;61.70;96419.13;5023889;28;20713;-70
2023/12/11 07:00:26;;;;;;;2.07;0.90;;;;;;;13.44;61.78;96424.78;5021894;28;20192;-69
2023/12/11 07:02:52;;;;;;;2.13;0.80;;;;;;;13.44;61.87;96415.06;5025136;28;20582;-70
2023/12/11 07:05:17;;;;;;;0.93;0.80;;;;;;;13.44;61.66;96416.88;5028721;28;20439;-69
2023/12/11 07:07:43;;;;;;;1.27;0.90;;;;;;;13.48;61.83;96402.34;5023568;28;20216;-70
2023/12/11 07:10:09;;;;;;;2.90;1.20;;;;;;;13.46;61.63;96399.09;5028876;28;20238;-70
2023/12/11 07:12:37;;;;;;;1.77;0.80;;;;;;;13.46;61.60;96404.34;5026638;28;20282;-70
2023/12/11 07:15:02;;;;;;;1.40;0.80;;;;;;;13.46;61.45;96396.44;5021832;28;20197;-70
2023/12/11 07:17:28;;;;;;;2.10;1.20;;;;;;;13.47;61.24;96400.72;5015900;28;20481;-68
2023/12/11 07:19:54;;;;;;;2.30;1.60;;;;;;;13.52;61.24;96406.19;5022431;28;20221;-70
2023/12/11 07:22:20;;;;;;;1.30;1.20;;;;;;;13.51;61.21;96392.25;5031765;28;20193;-70
2023/12/11 07:24:45;;;;;;;1.53;1.00;;;;;;;13.52;60.63;96393.03;5029084;28;20194;-70
2023/12/11 07:27:11;;;;;;;2.20;0.90;;;;;;;13.52;60.71;96390.41;5039367;28;20434;-70
2023/12/11 07:29:36;;;;;;;2.30;1.07;;;;;;;13.50;60.58;96385.34;5023161;28;20277;-70
2023/12/11 07:32:02;;;;;;;1.80;1.00;;;;;;;13.49;60.59;96393.41;5022110;28;20195;-72
2023/12/11 07:34:27;;;;;;;2.27;1.20;;;;;;;13.47;61.00;96388.34;5028932;28;20285;-70
2023/12/11 07:36:53;;;;;;;2.53;1.17;;;;;;;13.47;60.55;96380.47;5035555;28;20222;-69
2023/12/11 07:39:18;;;;;;;1.97;1.40;;;;;;;13.49;60.53;96380.25;5022944;28;20274;-70
2023/12/11 07:41:44;;;;;;;2.07;1.90;;;;;;;13.47;60.45;96377.81;5026134;28;20262;-71
2023/12/11 07:44:09;;;;;;;3.33;1.43;;;;;;;13.47;60.50;96388.34;5025829;28;20285;-70
2023/12/11 07:46:35;;;;;;;4.67;1.13;;;;;;;13.31;60.82;96373.63;5038545;28;20201;-69
2023/12/11 07:49:00;;;;;;;4.30;1.03;;;;;;;13.43;60.42;96368.69;5029161;28;20294;-70
2023/12/11 07:51:26;;;;;;;2.03;1.30;;;;;;;13.42;60.60;96359.16;5032410;28;20259;-70
2023/12/11 07:53:53;;;;;;;1.57;1.00;;;;;;;13.31;60.60;96357.84;5030809;28;20205;-68
2023/12/11 07:56:19;;;;;;;1.00;0.90;;;;;;;13.39;60.32;96380.56;5024121;28;20701;-70
2023/12/11 07:58:44;;;;;;;1.60;0.90;;;;;;;13.35;60.50;96379.31;5028985;28;20465;-70
2023/12/11 08:01:10;;;;;;;1.50;1.00;;;;;;;13.30;60.59;96400.13;5021253;28;20446;-70
2023/12/11 08:03:36;;;;;;;1.33;1.10;;;;;;;13.30;60.49;96406.19;5021727;28;20680;-69
2023/12/11 08:06:02;;;;;;;2.10;1.10;;;;;;;13.30;60.29;96414.09;5027434;28;20521;-69
2023/12/11 08:08:27;;;;;;;2.50;1.13;;;;;;;13.26;60.24;96414.66;5040994;28;20576;-69
2023/12/11 08:10:53;;;;;;;1.60;1.10;;;;;;;13.23;60.68;96418.50;5031027;28;20448;-69
2023/12/11 08:13:18;;;;;;;1.73;1.30;;;;;;;13.25;60.51;96405.94;5019038;28;20541;-69
2023/12/11 08:15:45;;;;;;;2.80;1.00;;;;;;;13.25;60.50;96411.22;5030944;28;20229;-69
2023/12/11 08:18:10;;;;;;;3.60;1.33;;;;;;;13.21;60.63;96404.72;5022041;28;20216;-70
2023/12/11 08:20:36;;;;;;;3.63;1.07;;;;;;;13.17;60.53;96406.09;5029404;28;20444;-69
2023/12/11 08:23:01;;;;;;;1.10;0.97;;;;;;;13.19;60.64;96406.72;5031432;28;20336;-70
2023/12/11 08:25:27;;;;;;;2.30;1.30;;;;;;;13.18;60.41;96410.34;5021655;28;20250;-69
2023/12/11 08:27:52;;;;;;;1.30;1.00;;;;;;;13.25;60.69;96387.53;5023713;28;20306;-70
2023/12/11 08:30:18;;;;;;;2.60;1.20;;;;;;;13.31;60.43;96389.41;5033735;28;20183;-69
2023/12/11 08:32:43;;;;;;;2.83;1.37;;;;;;;13.37;60.25;96395.75;5027254;28;20663;-69
2023/12/11 08:35:09;;;;;;;1.50;0.80;;;;;;;13.39;59.84;96398.16;5022526;28;20190;-70
2023/12/11 08:37:35;;;;;;;3.30;1.00;;;;;;;13.48;59.16;96397.09;5022714;28;20261;-70
2023/12/11 08:40:00;;;;;;;1.77;0.87;;;;;;;13.54;59.36;96398.13;5022772;28;20220;-70
2023/12/11 08:42:26;;;;;;;1.37;0.90;;;;;;;13.61;58.62;96405.06;5019857;28;20760;-70
2023/12/11 08:44:51;;;;;;;4.47;1.10;;;;;;;13.66;58.87;96397.41;5020996;28;20254;-70
2023/12/11 08:47:17;;;;;;;2.50;0.90;;;;;;;13.71;58.58;96402.09;5029144;28;20178;-69
2023/12/11 08:49:42;;;;;;;1.63;1.00;;;;;;;13.79;58.42;96401.97;5022754;28;20197;-70
2023/12/11 08:52:08;;;;;;;0.93;0.70;;;;;;;13.83;58.32;96403.19;5018022;28;20183;-69
2023/12/11 08:54:33;;;;;;;2.97;1.13;;;;;;;13.93;58.28;96407.28;5020690;28;20203;-70
2023/12/11 08:56:59;;;;;;;1.87;1.13;;;;;;;14.04;57.72;96408.59;5021571;28;20288;-69
2023/12/11 08:59:24;;;;;;;4.90;1.30;;;;;;;14.14;57.48;96424.84;5018567;28;20242;-69
2023/12/11 09:01:50;;;;;;;4.23;0.90;;;;;;;14.12;56.78;96445.31;5023470;28;20275;-70
2023/12/11 09:04:15;;;;;;;2.00;1.20;;;;;;;14.20;55.89;96421.47;5021044;28;20185;-70
2023/12/11 09:06:41;;;;;;;4.07;1.20;;;;;;;14.61;56.38;96413.75;5015937;28;20278;-70
2023/12/11 09:09:06;;;;;;;2.17;1.47;;;;;;;14.71;55.83;96424.75;5031096;28;20891;-70
2023/12/11 09:11:31;;;;;;;2.50;1.17;;;;;;;14.73;55.31;96420.09;5015950;28;20195;-69
2023/12/11 09:13:57;;;;;;;3.33;1.20;;;;;;;14.65;55.17;96426.34;5036275;28;20198;-69
2023/12/11 09:16:22;;;;;;;6.97;1.30;;;;;;;14.63;55.14;96427.53;5014334;28;20219;-69
2023/12/11 09:18:48;;;;;;;2.10;1.07;;;;;;;14.67;55.16;96428.75;5022882;28;20731;-70
2023/12/11 09:21:13;;;;;;;6.83;1.10;;;;;;;14.58;55.20;96423.66;5021449;28;20192;-69
2023/12/11 09:23:39;;;;;;;3.70;1.00;;;;;;;14.58;55.25;96434.22;5017943;28;20186;-69
2023/12/11 09:26:04;;;;;;;2.37;1.20;;;;;;;14.51;55.48;96451.00;5036980;28;20187;-70
2023/12/11 09:28:29;;;;;;;1.60;1.07;;;;;;;14.40;55.73;96462.91;5042035;28;20287;-69
2023/12/11 09:30:55;;;;;;;2.80;1.10;;;;;;;14.38;55.41;96446.47;5030720;28;20278;-69
2023/12/11 09:33:21;;;;;;;2.27;1.00;;;;;;;14.29;55.73;96454.53;5038909;28;20252;-69
2023/12/11 09:35:47;;;;;;;2.80;1.07;;;;;;;14.21;56.04;96443.34;5039880;28;20191;-69
2023/12/11 09:38:12;;;;;;;2.63;1.20;;;;;;;14.24;56.28;96445.59;5036837;28;20465;-69
2023/12/11 09:40:38;;;;;;;2.93;1.30;;;;;;;14.28;56.11;96447.66;5045567;28;20198;-70
2023/12/11 09:43:04;;;;;;;3.93;1.10;;;;;;;14.32;56.14;96428.81;5044523;28;20576;-69
2023/12/11 09:45:30;;;;;;;3.00;1.20;;;;;;;14.34;56.14;96424.97;5040719;28;20448;-70
2023/12/11 09:47:57;;;;;;;2.73;1.43;;;;;;;14.44;56.21;96416.72;5020215;28;20207;-70
2023/12/11 09:50:24;;;;;;;3.33;1.10;;;;;;;14.48;55.88;96420.59;5038571;28;20482;-68
2023/12/11 09:52:52;;;;;;;3.63;1.37;;;;;;;14.53;55.83;96428.72;5032015;28;20526;-69
2023/12/11 09:55:17;;;;;;;2.80;1.10;;;;;;;14.58;55.94;96418.41;5044175;28;20429;-68
2023/12/11 09:57:45;;;;;;;3.67;1.23;;;;;;;14.49;55.83;96416.13;5045059;28;20476;-70
2023/12/11 10:00:11;;;;;;;1.60;1.07;;;;;;;14.77;55.72;96402.84;5045328;28;20191;-69
2023/12/11 10:02:40;;;;;;;4.63;1.03;;;;;;;14.83;55.33;96402.06;5042017;28;21027;-70
2023/12/11 10:05:08;;;;;;;3.83;1.20;;;;;;;14.99;55.02;96419.34;5034464;28;20188;-70
2023/12/11 10:07:35;;;;;;;5.07;1.33;;;;;;;15.11;54.83;96430.16;5040098;28;20528;-69
2023/12/11 10:10:33;;;;;;;1.70;1.13;;;;;;;15.22;54.61;96426.09;5044208;28;20449;-70
2023/12/11 10:13:01;;;;;;;1.53;1.17;;;;;;;15.61;54.61;96423.72;4997181;28;20580;-68
2023/12/11 10:15:34;;;;;;;1.27;0.80;;;;;;;16.12;53.35;96411.69;5038464;28;20943;-69
2023/12/11 10:18:05;;;;;;;5.30;1.10;;;;;;;16.46;51.77;96414.22;5044598;28;20465;-70
2023/12/11 10:20:34;;;;;;;2.90;1.20;;;;;;;16.71;50.87;96409.84;5037202;28;20438;-69
2023/12/11 10:23:14;;;;;;;2.33;1.00;;;;;;;16.84;49.46;96413.44;5030470;28;20787;-69
2023/12/11 10:25:44;;;;;;;2.60;1.13;;;;;;;17.00;49.86;96409.53;5025161;28;20496;-69
2023/12/11 10:28:11;;;;;;;2.07;1.10;;;;;;;16.89;49.43;96403.03;5042379;28;20457;-69
2023/12/11 10:30:52;;;;;;;2.93;0.90;;;;;;;16.74;49.76;96425.31;5043418;28;20486;-69
2023/12/11 10:33:18;;;;;;;2.77;1.20;;;;;;;16.86;49.94;96408.78;5044979;28;20469;-68
2023/12/11 10:35:44;;;;;;;6.27;1.20;;;;;;;16.78;49.72;96411.63;5042207;28;21123;-69
2023/12/11 10:38:10;;;;;;;3.43;1.03;;;;;;;17.08;50.04;96397.88;5035942;28;21040;-71
2023/12/11 10:40:40;;;;;;;10.30;1.00;;;;;;;17.15;49.04;96396.81;5031345;28;20426;-69
2023/12/11 10:43:06;;;;;;;1.07;0.90;;;;;;;16.97;48.73;96384.31;5030881;28;20191;-70
2023/12/11 10:45:34;;;;;;;2.37;1.13;;;;;;;16.92;49.25;96373.50;5029583;28;20939;-70
2023/12/11 10:48:00;;;;;;;3.20;1.13;;;;;;;16.82;49.49;96396.97;5043260;28;20254;-69
2023/12/11 10:50:26;;;;;;;2.20;1.00;;;;;;;16.67;49.69;96399.91;5045934;28;20461;-71
2023/12/11 10:52:52;;;;;;;1.43;0.80;;;;;;;16.59;50.26;96408.88;5031704;28;20916;-69
2023/12/11 10:55:18;;;;;;;2.33;1.03;;;;;;;16.42;50.26;96409.34;5043741;28;20457;-71
2023/12/11 10:57:45;;;;;;;1.00;0.90;;;;;;;16.39;50.80;96414.25;5034244;28;20586;-69
2023/12/11 11:00:13;;;;;;;2.57;0.93;;;;;;;16.25;50.87;96403.72;5028184;28;20793;-69
2023/12/11 11:02:43;;;;;;;4.73;1.07;;;;;;;16.23;51.42;96394.38;5020311;28;20432;-69
2023/12/11 11:05:09;;;;;;;6.77;1.17;;;;;;;16.10;51.41;96385.47;5025480;28;20441;-70
2023/12/11 11:07:36;;;;;;;3.40;2.00;;;;;;;16.11;51.59;96395.00;5025085;28;20443;-70
2023/12/11 11:10:17;;;;;;;2.47;1.07;;;;;;;16.15;51.47;96415.72;5025350;28;20531;-69
2023/12/11 11:12:55;;;;;;;2.80;1.20;;;;;;;16.13;51.61;96416.75;5034200;28;20427;-70
2023/12/11 11:15:21;;;;;;;2.27;1.10;;;;;;;15.95;51.53;96417.38;5027043;28;20447;-69
2023/12/11 11:18:05;;;;;;;9.30;1.50;;;;;;;15.99;51.52;96412.53;5027217;28;20801;-69
2023/12/11 11:20:37;;;;;;;5.27;1.80;;;;;;;15.91;51.94;96410.09;5032160;28;20551;-70
2023/12/11 11:23:15;;;;;;;1.93;0.93;;;;;;;15.92;51.80;96409.06;5041276;28;20451;-70
2023/12/11 11:25:42;;;;;;;3.53;1.30;;;;;;;15.93;51.92;96408.06;5022437;28;20418;-69
2023/12/11 11:28:40;;;;;;;2.80;1.20;;;;;;;16.01;51.38;96405.19;5045363;28;20445;-70
2023/12/11 11:31:10;;;;;;;3.63;1.47;;;;;;;15.99;51.10;96404.59;5035783;28;20437;-71